Time;durP1;ratioP1;P1;durP2;ratioP2;P2;SDS_P1;SDS_P2;PMS_P1;PMS_P2;Temp;Humidity;BMP_temperature;BMP_pressure;BME280_temperature;BME280_humidity;BME280_pressure;Samples;Min_cycle;Max_cycle;Signal;HPM_P1;HPM_P2
2022/01/03 00:01:10;;;;;;;7.32;0.68;;;;;;;;;;5026044;28;20053;-85
2022/01/03 00:03:36;;;;;;;4.53;0.65;;;;;;;;;;5025863;28;20041;-85
2022/01/03 00:06:03;;;;;;;9.40;1.42;;;;;;;;;;5026805;28;20168;-86
2022/01/03 00:08:30;;;;;;;9.10;0.75;;;;;;;;;;5007025;28;20053;-86
2022/01/03 00:10:56;;;;;;;8.10;1.00;;;;;;;;;;5025770;28;20037;-86
2022/01/03 00:13:23;;;;;;;9.02;0.95;;;;;;;;;;5004595;28;20060;-86
2022/01/03 00:15:50;;;;;;;7.40;1.30;;;;;;;;;;5016662;28;20156;-86
2022/01/03 00:18:16;;;;;;;19.38;1.98;;;;;;;;;;5025227;28;20421;-86
2022/01/03 00:20:45;;;;;;;10.73;2.22;;;;;;;;;;5024507;28;20045;-86
2022/01/03 00:23:13;;;;;;;9.45;1.77;;;;;;;;;;5024987;28;20556;-86
2022/01/03 00:25:41;;;;;;;11.02;1.98;;;;;;;;;;5024005;28;20053;-85
2022/01/03 00:28:15;;;;;;;14.00;2.05;;;;;;;;;;4992816;28;20453;-86
2022/01/03 00:30:43;;;;;;;12.23;3.20;;;;;;;;;;5006301;28;20485;-86
2022/01/03 00:33:10;;;;;;;17.83;2.22;;;;;;;;;;5009451;28;20048;-86
2022/01/03 00:35:38;;;;;;;14.10;2.00;;;;;;;;;;5003903;28;20104;-85
2022/01/03 00:38:06;;;;;;;16.65;2.53;;;;;;;;;;5025633;28;20044;-86
2022/01/03 00:40:33;;;;;;;12.18;2.80;;;;;;;;;;5023580;28;20120;-84
2022/01/03 00:42:59;;;;;;;17.75;2.90;;;;;;;;;;5008000;28;20551;-86
2022/01/03 00:45:25;;;;;;;19.02;3.30;;;;;;;;;;5008955;28;20139;-85
2022/01/03 00:47:52;;;;;;;21.60;2.78;;;;;;;;;;5023510;28;20049;-87
2022/01/03 00:50:19;;;;;;;13.80;2.58;;;;;;;;;;5007582;28;20080;-87
2022/01/03 00:52:46;;;;;;;24.52;3.17;;;;;;;;;;5006217;28;20440;-86
2022/01/03 00:55:12;;;;;;;16.77;3.00;;;;;;;;;;5023683;28;20090;-86
2022/01/03 00:57:46;;;;;;;14.50;2.50;;;;;;;;;;5020471;28;20482;-87
2022/01/03 01:00:12;;;;;;;16.88;3.08;;;;;;;;;;5008329;28;20081;-86
2022/01/03 01:03:05;;;;;;;17.77;3.13;;;;;;;;;;5008237;28;20056;-86
2022/01/03 01:05:31;;;;;;;19.58;3.10;;;;;;;;;;4984268;28;20421;-86
2022/01/03 01:07:58;;;;;;;21.48;3.40;;;;;;;;;;5023596;28;20095;-86
2022/01/03 01:10:31;;;;;;;33.10;3.35;;;;;;;;;;5024591;28;20377;-85
2022/01/03 01:12:58;;;;;;;21.50;2.38;;;;;;;;;;5008384;28;20057;-86
2022/01/03 01:15:25;;;;;;;21.48;3.10;;;;;;;;;;5023452;28;20088;-86
2022/01/03 01:17:55;;;;;;;14.20;2.50;;;;;;;;;;5024572;28;20140;-85
2022/01/03 01:20:22;;;;;;;21.92;3.70;;;;;;;;;;5008622;28;20049;-87
2022/01/03 01:22:48;;;;;;;23.30;3.33;;;;;;;;;;5024325;28;20087;-84
2022/01/03 01:27:52;;;;;;;33.08;4.40;;;;;;;;;;5006095;28;20077;-86
2022/01/03 01:30:20;;;;;;;21.75;2.72;;;;;;;;;;5008270;28;20044;-85
2022/01/03 01:33:05;;;;;;;21.08;3.05;;;;;;;;;;5006748;28;20568;-85
2022/01/03 01:35:41;;;;;;;23.35;2.97;;;;;;;;;;5026079;28;20045;-86
2022/01/03 01:38:08;;;;;;;20.83;3.05;;;;;;;;;;5008854;28;20045;-85
2022/01/03 01:40:34;;;;;;;29.58;4.00;;;;;;;;;;5021243;28;20747;-85
2022/01/03 01:43:02;;;;;;;22.33;3.15;;;;;;;;;;5011652;28;20065;-85
2022/01/03 01:45:29;;;;;;;27.60;3.92;;;;;;;;;;4989686;28;20132;-85
2022/01/03 01:47:58;;;;;;;22.02;3.72;;;;;;;;;;5029252;28;20047;-85
2022/01/03 01:50:26;;;;;;;24.90;3.72;;;;;;;;;;5026922;28;20560;-86
2022/01/03 01:52:54;;;;;;;24.42;4.15;;;;;;;;;;4994863;28;20104;-86
2022/01/03 01:55:20;;;;;;;29.92;3.95;;;;;;;;;;5012062;28;20036;-85
2022/01/03 01:58:04;;;;;;;18.30;2.63;;;;;;;;;;5010538;28;20041;-86
2022/01/03 02:00:32;;;;;;;20.45;3.65;;;;;;;;;;5008633;28;20501;-85
2022/01/03 02:03:01;;;;;;;29.55;4.05;;;;;;;;;;5026389;28;20060;-84
2022/01/03 02:05:42;;;;;;;28.83;4.25;;;;;;;;;;5029040;28;20067;-85
2022/01/03 02:08:12;;;;;;;27.10;3.72;;;;;;;;;;4993334;28;20096;-85
2022/01/03 02:10:38;;;;;;;22.58;3.45;;;;;;;;;;5011480;28;20064;-86
2022/01/03 02:13:05;;;;;;;26.20;3.35;;;;;;;;;;5011250;28;20408;-85
2022/01/03 02:15:32;;;;;;;28.15;3.33;;;;;;;;;;5028537;28;20044;-86
2022/01/03 02:17:58;;;;;;;23.27;3.53;;;;;;;;;;5028200;28;20522;-86
2022/01/03 02:20:26;;;;;;;30.20;4.45;;;;;;;;;;5027548;28;20052;-85
2022/01/03 02:22:53;;;;;;;32.10;3.47;;;;;;;;;;5011482;28;20116;-85
2022/01/03 02:25:20;;;;;;;22.92;3.90;;;;;;;;;;5009812;28;20048;-85
2022/01/03 02:27:47;;;;;;;21.58;3.45;;;;;;;;;;5029119;28;20107;-85
2022/01/03 02:30:14;;;;;;;35.47;3.60;;;;;;;;;;5028133;28;20417;-85
2022/01/03 02:32:41;;;;;;;29.02;3.90;;;;;;;;;;5010594;28;20702;-85
2022/01/03 02:35:07;;;;;;;32.58;4.05;;;;;;;;;;5026823;28;20099;-84
2022/01/03 02:37:33;;;;;;;22.88;2.95;;;;;;;;;;5026737;28;20136;-85
2022/01/03 02:39:59;;;;;;;29.58;3.78;;;;;;;;;;5029009;28;20501;-85
2022/01/03 02:42:25;;;;;;;17.77;3.05;;;;;;;;;;5027218;28;20560;-84
2022/01/03 02:45:10;;;;;;;28.63;4.32;;;;;;;;;;5011761;28;20127;-84
2022/01/03 02:47:36;;;;;;;32.38;4.30;;;;;;;;;;5027333;28;20041;-85
2022/01/03 02:50:04;;;;;;;35.25;4.43;;;;;;;;;;5010071;28;20045;-86
2022/01/03 02:52:30;;;;;;;23.10;4.88;;;;;;;;;;5027269;28;20390;-84
2022/01/03 02:54:56;;;;;;;33.78;4.10;;;;;;;;;;5025865;28;20038;-85
2022/01/03 02:57:23;;;;;;;35.78;6.40;;;;;;;;;;5028727;28;20081;-85
2022/01/03 02:59:56;;;;;;;28.75;4.53;;;;;;;;;;5025619;28;20408;-84
2022/01/03 03:02:23;;;;;;;33.47;5.28;;;;;;;;;;5028867;28;20108;-85
2022/01/03 03:04:54;;;;;;;20.20;2.80;;;;;;;;;;5008956;28;20045;-86
2022/01/03 03:07:20;;;;;;;32.70;4.10;;;;;;;;;;5029219;28;20045;-85
2022/01/03 03:09:46;;;;;;;40.38;4.72;;;;;;;;;;5008536;28;20041;-85
2022/01/03 03:12:13;;;;;;;33.08;4.78;;;;;;;;;;5028262;28;20129;-85
2022/01/03 03:14:39;;;;;;;41.28;4.20;;;;;;;;;;5010612;28;20056;-85
2022/01/03 03:17:06;;;;;;;35.78;5.60;;;;;;;;;;5026866;28;20045;-84
2022/01/03 03:19:32;;;;;;;28.15;4.25;;;;;;;;;;5028369;28;20088;-85
2022/01/03 03:21:58;;;;;;;32.80;4.57;;;;;;;;;;5009409;28;20064;-84
2022/01/03 03:24:24;;;;;;;23.92;3.47;;;;;;;;;;5029410;28;20195;-85
2022/01/03 03:26:50;;;;;;;36.80;5.75;;;;;;;;;;5026563;28;20053;-85
2022/01/03 03:29:16;;;;;;;34.45;4.70;;;;;;;;;;4985296;28;20053;-85
2022/01/03 03:31:43;;;;;;;29.02;4.32;;;;;;;;;;5021251;28;20501;-84
2022/01/03 03:34:09;;;;;;;32.85;4.65;;;;;;;;;;5026125;28;20045;-85
2022/01/03 03:36:35;;;;;;;28.95;4.70;;;;;;;;;;5009573;28;20067;-84
2022/01/03 03:39:01;;;;;;;32.70;4.20;;;;;;;;;;5025618;28;20107;-84
2022/01/03 03:41:27;;;;;;;39.20;4.65;;;;;;;;;;5026689;28;20052;-85
2022/01/03 03:43:54;;;;;;;22.77;2.95;;;;;;;;;;5007670;28;20146;-84
2022/01/03 03:46:20;;;;;;;30.98;5.03;;;;;;;;;;5007497;28;20504;-84
2022/01/03 03:48:46;;;;;;;33.40;4.10;;;;;;;;;;5007483;28;20469;-85
2022/01/03 03:51:12;;;;;;;28.33;4.72;;;;;;;;;;5027137;28;20047;-85
2022/01/03 03:53:38;;;;;;;34.60;5.50;;;;;;;;;;4992545;28;20120;-85
2022/01/03 03:56:04;;;;;;;36.45;4.15;;;;;;;;;;5026555;28;20065;-85
2022/01/03 03:58:30;;;;;;;36.17;5.05;;;;;;;;;;5026533;28;20549;-84
2022/01/03 04:00:56;;;;;;;38.35;4.13;;;;;;;;;;5025346;28;20841;-84
2022/01/03 04:03:22;;;;;;;27.35;4.90;;;;;;;;;;5023602;28;20048;-84
2022/01/03 04:05:48;;;;;;;28.50;5.10;;;;;;;;;;5025406;28;20042;-84
2022/01/03 04:08:14;;;;;;;32.58;4.93;;;;;;;;;;4993293;28;20552;-84
2022/01/03 04:10:40;;;;;;;42.80;5.22;;;;;;;;;;5025584;28;20438;-84
2022/01/03 04:13:06;;;;;;;34.10;4.95;;;;;;;;;;5026866;28;20430;-84
2022/01/03 04:15:32;;;;;;;44.05;5.40;;;;;;;;;;5026463;28;20111;-84
2022/01/03 04:17:59;;;;;;;29.70;5.30;;;;;;;;;;5026282;28;20139;-85
2022/01/03 04:20:26;;;;;;;29.67;4.53;;;;;;;;;;5026421;28;20501;-84
2022/01/03 04:22:52;;;;;;;20.95;2.63;;;;;;;;;;5025827;28;20468;-85
2022/01/03 04:25:18;;;;;;;32.97;6.28;;;;;;;;;;5026222;28;20045;-85
2022/01/03 04:27:44;;;;;;;25.63;4.50;;;;;;;;;;5025707;28;20571;-83
2022/01/03 04:30:10;;;;;;;32.30;5.25;;;;;;;;;;5028112;28;20045;-85
2022/01/03 04:32:37;;;;;;;25.08;3.42;;;;;;;;;;5024108;28;20045;-83
2022/01/03 04:35:03;;;;;;;31.73;6.13;;;;;;;;;;5025111;28;20045;-84
2022/01/03 04:37:30;;;;;;;26.40;5.53;;;;;;;;;;5016682;28;20044;-84
2022/01/03 04:39:56;;;;;;;34.45;4.70;;;;;;;;;;5025993;28;20108;-84
2022/01/03 04:42:23;;;;;;;32.00;5.32;;;;;;;;;;5010006;28;20104;-84
2022/01/03 04:44:49;;;;;;;29.85;4.88;;;;;;;;;;5025871;28;20045;-84
2022/01/03 04:47:16;;;;;;;26.63;3.33;;;;;;;;;;5009430;28;20045;-84
2022/01/03 04:49:42;;;;;;;25.40;4.75;;;;;;;;;;5025014;28;20547;-84
2022/01/03 04:52:09;;;;;;;34.83;4.82;;;;;;;;;;5025773;28;20088;-84
2022/01/03 04:54:35;;;;;;;25.25;3.80;;;;;;;;;;5026150;28;20046;-84
2022/01/03 04:57:01;;;;;;;34.55;4.90;;;;;;;;;;5026035;28;20129;-84
2022/01/03 04:59:27;;;;;;;21.17;4.03;;;;;;;;;;5026825;28;20099;-85
2022/01/03 05:01:53;;;;;;;27.92;4.75;;;;;;;;;;5022779;28;20041;-83
2022/01/03 05:04:22;;;;;;;37.25;4.60;;;;;;;;;;5023698;28;20523;-84
2022/01/03 05:06:48;;;;;;;38.72;4.13;;;;;;;;;;5021798;28;20068;-84
2022/01/03 05:09:14;;;;;;;28.70;4.47;;;;;;;;;;5024155;28;20067;-84
2022/01/03 05:11:41;;;;;;;23.02;3.47;;;;;;;;;;5005735;28;20041;-84
2022/01/03 05:14:07;;;;;;;44.65;5.85;;;;;;;;;;5024183;28;20444;-84
2022/01/03 05:16:33;;;;;;;30.98;4.70;;;;;;;;;;5023198;28;20048;-85
2022/01/03 05:19:00;;;;;;;33.20;5.32;;;;;;;;;;5022814;28;20053;-85
2022/01/03 05:21:26;;;;;;;37.03;7.05;;;;;;;;;;4974287;28;20405;-84
2022/01/03 05:23:52;;;;;;;38.58;5.60;;;;;;;;;;5024194;28;20052;-84
2022/01/03 05:26:18;;;;;;;23.08;4.20;;;;;;;;;;4992190;28;20046;-84
2022/01/03 05:28:45;;;;;;;35.60;4.55;;;;;;;;;;5006086;28;20115;-84
2022/01/03 05:31:12;;;;;;;26.75;4.80;;;;;;;;;;5025439;28;20778;-83
2022/01/03 05:33:38;;;;;;;32.45;5.65;;;;;;;;;;5006052;28;20045;-84
2022/01/03 05:36:04;;;;;;;30.50;5.38;;;;;;;;;;5023533;28;20049;-85
2022/01/03 05:38:31;;;;;;;33.42;3.55;;;;;;;;;;5019758;28;20041;-83
2022/01/03 05:40:57;;;;;;;19.92;3.28;;;;;;;;;;5024033;28;20049;-85
2022/01/03 05:43:23;;;;;;;33.83;6.22;;;;;;;;;;5006997;28;20038;-83
2022/01/03 05:45:49;;;;;;;27.13;4.38;;;;;;;;;;4970174;28;20041;-83
2022/01/03 05:48:15;;;;;;;44.13;5.07;;;;;;;;;;5005400;28;20136;-84
2022/01/03 05:50:41;;;;;;;33.20;5.13;;;;;;;;;;5012327;28;20038;-84
2022/01/03 05:53:07;;;;;;;33.20;4.22;;;;;;;;;;5023994;28;20049;-84
2022/01/03 05:55:33;;;;;;;27.60;5.32;;;;;;;;;;5021623;28;20768;-84
2022/01/03 05:57:59;;;;;;;29.02;4.80;;;;;;;;;;5024380;28;20124;-84
2022/01/03 06:00:26;;;;;;;45.15;7.72;;;;;;;;;;5006892;28;20490;-84
2022/01/03 06:02:56;;;;;;;47.05;5.82;;;;;;;;;;5005097;28;20045;-85
2022/01/03 06:06:32;;;;;;;41.00;6.35;;;;;;;;;;5011271;28;20054;-85
2022/01/03 06:08:17;;;;;;;34.22;5.35;;;;;;;;;;4975556;28;20494;-84
2022/01/03 06:10:43;;;;;;;35.75;5.50;;;;;;;;;;4993678;28;20068;-84
2022/01/03 06:13:09;;;;;;;28.90;4.50;;;;;;;;;;5022823;28;20160;-84
2022/01/03 06:15:39;;;;;;;32.72;4.47;;;;;;;;;;5021654;28;20053;-84
2022/01/03 06:18:10;;;;;;;25.05;5.07;;;;;;;;;;5020827;28;20417;-85
2022/01/03 06:20:36;;;;;;;48.33;6.18;;;;;;;;;;4994587;28;20045;-84
2022/01/03 06:23:02;;;;;;;31.50;4.20;;;;;;;;;;5021030;28;20524;-83
2022/01/03 06:25:28;;;;;;;35.85;5.63;;;;;;;;;;5021430;28;20042;-84
2022/01/03 06:27:54;;;;;;;29.48;5.80;;;;;;;;;;5024374;28;20034;-84
2022/01/03 06:30:21;;;;;;;35.72;5.68;;;;;;;;;;5023901;28;20518;-84
2022/01/03 06:32:47;;;;;;;45.28;7.38;;;;;;;;;;5023618;28;20136;-84
2022/01/03 06:35:13;;;;;;;45.85;5.85;;;;;;;;;;5022674;28;20134;-84
2022/01/03 06:37:39;;;;;;;25.90;3.92;;;;;;;;;;5020438;28;20048;-83
2022/01/03 06:40:06;;;;;;;40.20;6.00;;;;;;;;;;5024633;28;20894;-84
2022/01/03 06:42:32;;;;;;;26.05;5.78;;;;;;;;;;5022709;28;20517;-84
2022/01/03 06:44:58;;;;;;;26.00;3.92;;;;;;;;;;5023022;28;20045;-83
2022/01/03 06:47:25;;;;;;;34.85;4.75;;;;;;;;;;5021155;28;20045;-84
2022/01/03 06:49:51;;;;;;;30.17;5.50;;;;;;;;;;5023363;28;20487;-84
2022/01/03 06:52:17;;;;;;;34.78;5.07;;;;;;;;;;5023738;28;20029;-84
2022/01/03 06:54:43;;;;;;;28.05;4.85;;;;;;;;;;5023013;28;20580;-85
2022/01/03 06:57:09;;;;;;;39.33;5.63;;;;;;;;;;5022713;28;20083;-84
2022/01/03 06:59:36;;;;;;;39.58;5.45;;;;;;;;;;5021276;28;20042;-84
2022/01/03 07:02:02;;;;;;;36.58;5.65;;;;;;;;;;4990210;28;20037;-83
2022/01/03 07:04:28;;;;;;;27.20;4.82;;;;;;;;;;5022273;28;20442;-84
2022/01/03 07:06:54;;;;;;;33.03;5.47;;;;;;;;;;5023601;28;20794;-84
2022/01/03 07:09:20;;;;;;;49.17;6.75;;;;;;;;;;5020929;28;20114;-84
2022/01/03 07:11:46;;;;;;;28.10;4.70;;;;;;;;;;5023605;28;20048;-84
2022/01/03 07:19:44;;;;;;;44.33;5.60;;;;;;;;;;5004825;28;20131;-83
2022/01/03 07:22:11;;;;;;;36.20;4.68;;;;;;;;;;5022165;28;20049;-84
2022/01/03 07:24:38;;;;;;;29.60;5.28;;;;;;;;;;5022628;28;20072;-84
2022/01/03 07:27:05;;;;;;;34.13;4.88;;;;;;;;;;5022326;28;20140;-84
2022/01/03 07:29:31;;;;;;;28.42;3.70;;;;;;;;;;5021620;28;20076;-84
2022/01/03 07:31:57;;;;;;;37.95;6.43;;;;;;;;;;5021754;28;20068;-83
2022/01/03 07:34:24;;;;;;;39.83;5.60;;;;;;;;;;5021106;28;20069;-84
2022/01/03 07:36:50;;;;;;;34.67;6.60;;;;;;;;;;5022061;28;20119;-85
2022/01/03 07:39:16;;;;;;;33.30;4.93;;;;;;;;;;5022255;28;20844;-84
2022/01/03 07:41:42;;;;;;;27.48;4.55;;;;;;;;;;5019483;28;20073;-84
2022/01/03 07:44:08;;;;;;;32.17;5.80;;;;;;;;;;5022536;28;20041;-85
2022/01/03 07:46:35;;;;;;;22.33;4.30;;;;;;;;;;5023877;28;20087;-85
2022/01/03 07:49:01;;;;;;;37.42;5.75;;;;;;;;;;5023007;28;20469;-85
2022/01/03 07:51:27;;;;;;;32.90;4.90;;;;;;;;;;5024906;28;20374;-85
2022/01/03 07:53:53;;;;;;;30.00;6.22;;;;;;;;;;5023541;28;20138;-84
2022/01/03 07:56:19;;;;;;;30.90;4.68;;;;;;;;;;5022375;28;20029;-83
2022/01/03 07:58:46;;;;;;;35.42;5.75;;;;;;;;;;5023598;28;20056;-84
2022/01/03 08:01:12;;;;;;;33.92;5.53;;;;;;;;;;5025177;28;20041;-85
2022/01/03 08:03:38;;;;;;;40.05;5.20;;;;;;;;;;5024998;28;20087;-84
2022/01/03 08:06:05;;;;;;;39.10;4.82;;;;;;;;;;5007843;28;20045;-84
2022/01/03 08:08:31;;;;;;;33.70;5.68;;;;;;;;;;5024690;28;20401;-84
2022/01/03 08:10:57;;;;;;;51.95;6.55;;;;;;;;;;5025485;28;20041;-84
2022/01/03 08:13:23;;;;;;;30.40;4.35;;;;;;;;;;5023581;28;20045;-84
2022/01/03 08:15:49;;;;;;;36.50;6.30;;;;;;;;;;5025869;28;20225;-84
2022/01/03 08:18:15;;;;;;;24.08;4.05;;;;;;;;;;5023663;28;20575;-84
2022/01/03 08:20:41;;;;;;;36.88;4.50;;;;;;;;;;5023188;28;20847;-85
2022/01/03 08:23:07;;;;;;;40.05;6.22;;;;;;;;;;5007792;28;20052;-85
2022/01/03 08:25:37;;;;;;;38.10;6.43;;;;;;;;;;5024582;28;20041;-84
2022/01/03 08:28:06;;;;;;;38.55;5.25;;;;;;;;;;5025721;28;20087;-84
2022/01/03 08:30:32;;;;;;;35.65;4.90;;;;;;;;;;5026345;28;20559;-84
2022/01/03 08:32:58;;;;;;;31.05;4.93;;;;;;;;;;5026421;28;20452;-85
2022/01/03 08:35:24;;;;;;;26.67;4.43;;;;;;;;;;5022296;28;20049;-86
2022/01/03 08:37:54;;;;;;;43.10;6.03;;;;;;;;;;5024260;28;20049;-86
2022/01/03 08:40:21;;;;;;;40.55;5.75;;;;;;;;;;5023458;28;20080;-87
2022/01/03 08:42:47;;;;;;;25.42;4.57;;;;;;;;;;5023455;28;20041;-85
2022/01/03 08:45:15;;;;;;;31.30;5.20;;;;;;;;;;4999026;28;20045;-85
2022/01/03 08:47:41;;;;;;;33.67;5.75;;;;;;;;;;5022145;28;20087;-85
2022/01/03 08:50:08;;;;;;;33.80;5.60;;;;;;;;;;5015250;28;20098;-84
2022/01/03 08:52:34;;;;;;;39.97;5.80;;;;;;;;;;5007157;28;20037;-85
2022/01/03 08:55:00;;;;;;;37.35;6.72;;;;;;;;;;5006278;28;20073;-86
2022/01/03 08:57:26;;;;;;;34.13;4.82;;;;;;;;;;5005800;28;20045;-85
2022/01/03 08:59:52;;;;;;;40.35;5.65;;;;;;;;;;5026027;28;20524;-87
2022/01/03 09:02:18;;;;;;;32.53;5.55;;;;;;;;;;5024330;28;20100;-85
2022/01/03 09:04:47;;;;;;;34.22;5.22;;;;;;;;;;5007412;28;20049;-85
2022/01/03 09:07:14;;;;;;;37.70;5.10;;;;;;;;;;5024888;28;20053;-85
2022/01/03 09:09:40;;;;;;;24.02;5.25;;;;;;;;;;5007061;28;20413;-85
2022/01/03 09:12:07;;;;;;;27.42;4.30;;;;;;;;;;5024191;28;20049;-85
2022/01/03 09:14:36;;;;;;;30.33;4.65;;;;;;;;;;5006712;28;20484;-85
2022/01/03 09:17:03;;;;;;;40.10;5.65;;;;;;;;;;5007736;28;20056;-85
2022/01/03 09:19:29;;;;;;;26.73;4.63;;;;;;;;;;5021596;28;20050;-85
2022/01/03 09:22:06;;;;;;;30.88;4.97;;;;;;;;;;5025750;28;20532;-86
2022/01/03 09:24:44;;;;;;;30.05;5.63;;;;;;;;;;5006490;28;20048;-85
2022/01/03 09:29:57;;;;;;;32.30;4.85;;;;;;;;;;5025135;28;20107;-85
2022/01/03 09:32:23;;;;;;;25.42;5.10;;;;;;;;;;5023550;28;20045;-85
2022/01/03 09:34:49;;;;;;;26.85;4.97;;;;;;;;;;5025722;28;20057;-85
2022/01/03 09:37:20;;;;;;;29.00;4.25;;;;;;;;;;5011944;28;20135;-85
2022/01/03 09:39:49;;;;;;;25.42;4.53;;;;;;;;;;4987417;28;20058;-86
2022/01/03 09:42:18;;;;;;;26.30;4.88;;;;;;;;;;5015646;28;20049;-85
2022/01/03 09:44:45;;;;;;;30.80;4.82;;;;;;;;;;5024254;28;20033;-86
2022/01/03 09:47:13;;;;;;;28.63;4.90;;;;;;;;;;5023239;28;20049;-85
2022/01/03 09:49:40;;;;;;;25.02;3.97;;;;;;;;;;5024193;28;20045;-86
2022/01/03 09:52:07;;;;;;;23.33;4.50;;;;;;;;;;5007424;28;20140;-85
2022/01/03 09:54:33;;;;;;;33.22;5.55;;;;;;;;;;5022566;28;20091;-85
2022/01/03 09:57:00;;;;;;;35.20;4.93;;;;;;;;;;5007847;28;20077;-86
2022/01/03 09:59:27;;;;;;;30.30;5.40;;;;;;;;;;4994214;28;20042;-86
2022/01/03 10:01:56;;;;;;;27.20;4.32;;;;;;;;;;5026119;28;20052;-85
2022/01/03 10:04:22;;;;;;;31.75;5.55;;;;;;;;;;5028452;28;20066;-85
2022/01/03 10:06:48;;;;;;;38.38;5.95;;;;;;;;;;5028096;28;20065;-85
2022/01/03 10:09:15;;;;;;;33.88;5.22;;;;;;;;;;5009703;28;20092;-86
2022/01/03 10:11:41;;;;;;;29.10;4.95;;;;;;;;;;5027072;28;20091;-85
2022/01/03 10:14:07;;;;;;;35.10;6.13;;;;;;;;;;5027668;28;20045;-88
2022/01/03 10:16:54;;;;;;;30.02;4.28;;;;;;;;;;4997360;28;20042;-87
2022/01/03 10:19:20;;;;;;;24.50;4.25;;;;;;;;;;5028930;28;20536;-86
2022/01/03 10:21:48;;;;;;;27.20;4.65;;;;;;;;;;5009296;28;20061;-85
2022/01/03 10:24:19;;;;;;;34.70;5.47;;;;;;;;;;5028905;28;20033;-86
2022/01/03 10:26:54;;;;;;;24.25;3.60;;;;;;;;;;5026506;28;20056;-85
2022/01/03 10:29:26;;;;;;;24.80;3.60;;;;;;;;;;5026863;28;20160;-85
2022/01/03 10:31:58;;;;;;;41.28;5.22;;;;;;;;;;5010093;28;20065;-86
2022/01/03 10:34:24;;;;;;;29.90;6.05;;;;;;;;;;4992862;28;20061;-85
2022/01/03 10:36:52;;;;;;;28.85;4.82;;;;;;;;;;5019015;28;20038;-85
2022/01/03 10:39:18;;;;;;;29.13;4.78;;;;;;;;;;5020019;28;20512;-86
2022/01/03 10:41:44;;;;;;;20.15;3.65;;;;;;;;;;5026722;28;20385;-85
2022/01/03 10:44:11;;;;;;;32.80;4.95;;;;;;;;;;5024888;28;20042;-86
2022/01/03 10:46:38;;;;;;;39.13;5.63;;;;;;;;;;5009483;28;20077;-85
2022/01/03 10:49:07;;;;;;;24.63;4.25;;;;;;;;;;5025845;28;20145;-86
2022/01/03 10:51:40;;;;;;;34.85;4.80;;;;;;;;;;5027498;28;20085;-86
2022/01/03 10:54:10;;;;;;;26.75;4.25;;;;;;;;;;4992821;28;20050;-86
2022/01/03 10:56:38;;;;;;;26.00;4.30;;;;;;;;;;4992198;28;20113;-85
2022/01/03 10:59:16;;;;;;;29.88;4.97;;;;;;;;;;5027007;28;20045;-86
2022/01/03 11:01:43;;;;;;;36.70;5.57;;;;;;;;;;5007890;28;20473;-87
2022/01/03 11:04:14;;;;;;;31.55;5.13;;;;;;;;;;5008705;28;20034;-85
2022/01/03 11:11:55;;;;;;;31.05;5.20;;;;;;;;;;5005310;28;20107;-86
2022/01/03 11:14:34;;;;;;;32.67;3.83;;;;;;;;;;5010574;28;20046;-86
2022/01/03 11:17:02;;;;;;;17.25;3.17;;;;;;;;;;5026013;28;20152;-85
2022/01/03 11:19:45;;;;;;;26.92;4.75;;;;;;;;;;5022471;28;20061;-85
2022/01/03 11:22:31;;;;;;;29.92;4.90;;;;;;;;;;4991371;28;20368;-88
2022/01/03 11:24:57;;;;;;;30.70;5.68;;;;;;;;;;5025295;28;20132;-86
2022/01/03 11:27:23;;;;;;;31.85;4.80;;;;;;;;;;5024244;28;20045;-86
2022/01/03 11:29:49;;;;;;;23.42;4.25;;;;;;;;;;5024986;28;20048;-88
2022/01/03 11:32:15;;;;;;;29.05;4.35;;;;;;;;;;5025260;28;20374;-86
2022/01/03 11:34:41;;;;;;;28.98;4.28;;;;;;;;;;5026438;28;20047;-87
2022/01/03 11:37:08;;;;;;;28.40;5.10;;;;;;;;;;5024261;28;20041;-86
2022/01/03 11:39:36;;;;;;;33.13;5.38;;;;;;;;;;5025923;28;20098;-86
2022/01/03 11:42:02;;;;;;;26.27;4.45;;;;;;;;;;4989324;28;20048;-86
2022/01/03 11:44:28;;;;;;;32.25;5.07;;;;;;;;;;5024571;28;20053;-88
2022/01/03 11:46:55;;;;;;;34.05;4.82;;;;;;;;;;5005949;28;20034;-86
2022/01/03 11:49:21;;;;;;;27.35;4.60;;;;;;;;;;5024881;28;20175;-86
2022/01/03 11:51:47;;;;;;;25.02;4.32;;;;;;;;;;5024643;28;20531;-86
2022/01/03 11:54:16;;;;;;;23.67;3.33;;;;;;;;;;5025934;28;20083;-85
2022/01/03 11:56:53;;;;;;;24.55;4.03;;;;;;;;;;5023524;28;20047;-85
2022/01/03 12:03:36;;;;;;;28.38;4.85;;;;;;;;;;5005253;28;20128;-86
2022/01/03 12:05:07;;;;;;;23.55;3.90;;;;;;;;;;5025686;28;20131;-86
2022/01/03 12:07:33;;;;;;;25.67;4.50;;;;;;;;;;4991240;28;20409;-85
2022/01/03 12:10:07;;;;;;;23.70;4.53;;;;;;;;;;5025535;28;20037;-86
2022/01/03 12:12:35;;;;;;;31.10;4.97;;;;;;;;;;5023345;28;20053;-85
2022/01/03 12:15:02;;;;;;;29.85;4.72;;;;;;;;;;5026753;28;20401;-83
2022/01/03 12:17:42;;;;;;;24.38;4.32;;;;;;;;;;5025129;28;20049;-84
2022/01/03 12:20:09;;;;;;;23.10;3.85;;;;;;;;;;5024904;28;20140;-84
2022/01/03 12:22:54;;;;;;;28.02;4.40;;;;;;;;;;4991320;28;20393;-85
2022/01/03 12:25:25;;;;;;;25.70;4.40;;;;;;;;;;5023669;28;20076;-85
2022/01/03 12:27:55;;;;;;;25.63;4.75;;;;;;;;;;5022336;28;20045;-83
2022/01/03 12:30:23;;;;;;;25.83;3.78;;;;;;;;;;5024512;28;20049;-85
2022/01/03 12:33:19;;;;;;;26.20;3.67;;;;;;;;;;5007887;28;20068;-85
2022/01/03 12:35:47;;;;;;;25.23;4.05;;;;;;;;;;4999074;28;20057;-85
2022/01/03 12:38:14;;;;;;;31.75;5.50;;;;;;;;;;5025016;28;20038;-84
2022/01/03 12:40:43;;;;;;;37.90;5.03;;;;;;;;;;5025951;28;20477;-85
2022/01/03 12:43:13;;;;;;;27.40;4.63;;;;;;;;;;5007161;28;20058;-86
2022/01/03 12:45:39;;;;;;;24.50;4.38;;;;;;;;;;5007872;28;20413;-84
2022/01/03 12:48:11;;;;;;;18.90;3.20;;;;;;;;;;5023746;28;20394;-83
2022/01/03 12:50:53;;;;;;;27.45;4.40;;;;;;;;;;5023765;28;20073;-82
2022/01/03 12:53:28;;;;;;;25.95;4.65;;;;;;;;;;5024273;28;20573;-83
2022/01/03 12:55:58;;;;;;;24.02;4.30;;;;;;;;;;5023254;28;20045;-83
2022/01/03 12:58:24;;;;;;;27.00;4.68;;;;;;;;;;5007841;28;20073;-83
2022/01/03 13:00:52;;;;;;;31.67;4.53;;;;;;;;;;5024475;28;20084;-82
2022/01/03 13:03:21;;;;;;;22.70;3.35;;;;;;;;;;5025436;28;20052;-84
2022/01/03 13:06:06;;;;;;;36.53;5.15;;;;;;;;;;5024995;28;20046;-83
2022/01/03 13:08:36;;;;;;;24.33;4.07;;;;;;;;;;5020811;28;20041;-83
2022/01/03 13:11:04;;;;;;;30.63;4.57;;;;;;;;;;5022607;28;20045;-84
2022/01/03 13:13:30;;;;;;;28.77;4.50;;;;;;;;;;5023324;28;20050;-84
2022/01/03 13:15:56;;;;;;;27.42;4.45;;;;;;;;;;5006228;28;20041;-83
2022/01/03 13:18:23;;;;;;;26.15;4.20;;;;;;;;;;5024999;28;20049;-83
2022/01/03 13:20:59;;;;;;;33.72;3.95;;;;;;;;;;5024996;28;20147;-83
2022/01/03 13:23:25;;;;;;;32.60;5.07;;;;;;;;;;5023509;28;20122;-84
2022/01/03 13:25:51;;;;;;;19.60;4.00;;;;;;;;;;5022738;28;20049;-84
2022/01/03 13:28:18;;;;;;;28.75;4.82;;;;;;;;;;5007095;28;20107;-83
2022/01/03 13:31:03;;;;;;;20.23;3.80;;;;;;;;;;5005833;28;20069;-84
2022/01/03 13:33:29;;;;;;;25.35;3.42;;;;;;;;;;5007336;28;20061;-85
2022/01/03 13:36:02;;;;;;;15.77;3.05;;;;;;;;;;5008647;28;20033;-84
2022/01/03 13:38:28;;;;;;;19.77;4.30;;;;;;;;;;5027783;28;20556;-84
2022/01/03 13:41:15;;;;;;;30.50;5.30;;;;;;;;;;5028578;28;20501;-84
2022/01/03 13:43:47;;;;;;;29.92;5.32;;;;;;;;;;5008827;28;20065;-85
2022/01/03 13:49:11;;;;;;;20.90;5.18;;;;;;;;;;5028162;28;20044;-84
2022/01/03 13:51:38;;;;;;;28.83;5.43;;;;;;;;;;5025969;28;20044;-84
2022/01/03 13:54:04;;;;;;;21.05;3.42;;;;;;;;;;5028254;28;20042;-85
2022/01/03 13:56:40;;;;;;;26.10;4.22;;;;;;;;;;5029355;28;20049;-85
2022/01/03 13:59:07;;;;;;;22.83;3.85;;;;;;;;;;5010568;28;20370;-84
2022/01/03 14:01:34;;;;;;;28.40;4.28;;;;;;;;;;5028144;28;20061;-85
2022/01/03 14:04:00;;;;;;;20.77;3.28;;;;;;;;;;5012258;28;20499;-85
2022/01/03 14:06:26;;;;;;;40.17;4.05;;;;;;;;;;5026744;28;20053;-85
2022/01/03 14:08:53;;;;;;;24.50;4.07;;;;;;;;;;5026411;28;20520;-84
2022/01/03 14:11:20;;;;;;;23.05;4.40;;;;;;;;;;5010486;28;20076;-85
2022/01/03 14:13:46;;;;;;;33.20;6.18;;;;;;;;;;5010150;28;20049;-85
2022/01/03 14:16:13;;;;;;;26.08;5.75;;;;;;;;;;5028965;28;20045;-84
2022/01/03 14:18:41;;;;;;;33.25;5.35;;;;;;;;;;5027655;28;20493;-85
2022/01/03 14:21:08;;;;;;;31.10;4.63;;;;;;;;;;5028193;28;20143;-85
2022/01/03 14:23:36;;;;;;;36.22;5.53;;;;;;;;;;5025893;28;20497;-85
2022/01/03 14:26:13;;;;;;;33.88;5.20;;;;;;;;;;5027707;28;20575;-85
2022/01/03 14:28:40;;;;;;;31.20;5.25;;;;;;;;;;5023036;28;20171;-85
2022/01/03 14:31:08;;;;;;;16.42;3.47;;;;;;;;;;5022703;28;20050;-85
2022/01/03 14:33:39;;;;;;;39.53;5.82;;;;;;;;;;5028376;28;20515;-86
2022/01/03 14:36:11;;;;;;;22.00;4.78;;;;;;;;;;5025514;28;20043;-85
2022/01/03 14:38:40;;;;;;;33.05;6.47;;;;;;;;;;5027042;28;20064;-86
2022/01/03 14:41:06;;;;;;;35.50;4.93;;;;;;;;;;5023588;28;20053;-85
2022/01/03 14:43:32;;;;;;;28.73;5.03;;;;;;;;;;5043540;28;20057;-85
2022/01/03 14:46:06;;;;;;;31.88;5.22;;;;;;;;;;5024326;28;20780;-84
2022/01/03 14:48:32;;;;;;;28.67;4.47;;;;;;;;;;5008953;28;20111;-86
2022/01/03 14:51:08;;;;;;;42.15;4.80;;;;;;;;;;5025865;28;20044;-84
2022/01/03 14:53:35;;;;;;;37.38;5.00;;;;;;;;;;5023517;28;20052;-84
2022/01/03 14:56:01;;;;;;;39.80;5.03;;;;;;;;;;5023728;28;20049;-84
2022/01/03 14:58:27;;;;;;;35.58;5.13;;;;;;;;;;5024873;28;20432;-85